Time;durP1;ratioP1;P1;durP2;ratioP2;P2;SDS_P1;SDS_P2;PMS_P1;PMS_P2;Temp;Humidity;BMP_temperature;BMP_pressure;BME280_temperature;BME280_humidity;BME280_pressure;Samples;Min_cycle;Max_cycle;Signal;HPM_P1;HPM_P2
2022/01/01 00:01:35;;;;;;;18.37;10.03;;;;;;;11.47;87.63;102258.72;5016497;28;20117;-92
2022/01/01 00:04:01;;;;;;;17.10;8.48;;;;;;;11.50;87.99;102265.66;5016533;28;20022;-92
2022/01/01 00:06:26;;;;;;;14.20;7.40;;;;;;;11.51;87.84;102263.06;5018677;28;20563;-93
2022/01/01 00:08:52;;;;;;;15.30;7.57;;;;;;;11.47;88.55;102257.84;5016324;28;20470;-93
2022/01/01 00:11:32;;;;;;;15.13;7.30;;;;;;;11.50;88.04;102265.66;5016421;28;20496;-93
2022/01/01 00:13:57;;;;;;;15.98;7.22;;;;;;;11.49;88.09;102269.13;5016036;28;20100;-93
2022/01/01 00:16:22;;;;;;;13.73;6.63;;;;;;;11.49;88.32;102275.19;5015682;28;20042;-93
2022/01/01 00:18:47;;;;;;;13.20;6.37;;;;;;;11.48;88.03;102270.88;5016044;28;20026;-92
2022/01/01 00:21:43;;;;;;;10.70;5.87;;;;;;;11.53;88.07;102284.75;5016009;28;20028;-93
2022/01/01 00:24:09;;;;;;;11.68;5.13;;;;;;;11.53;87.70;102286.47;5016223;28;20034;-92
2022/01/01 00:26:54;;;;;;;11.80;5.53;;;;;;;11.52;88.15;102284.75;4997349;28;20367;-93
2022/01/01 00:29:20;;;;;;;12.25;5.68;;;;;;;11.51;88.27;102290.81;5016082;28;20100;-92
2022/01/01 00:32:01;;;;;;;11.60;5.68;;;;;;;11.53;88.35;102284.75;5016256;28;20378;-93
2022/01/01 00:34:26;;;;;;;11.75;5.43;;;;;;;11.53;88.17;102282.13;5003784;28;20037;-93
2022/01/01 00:36:51;;;;;;;12.53;5.23;;;;;;;11.56;87.79;102289.06;5015058;28;20026;-93
2022/01/01 00:39:17;;;;;;;15.90;6.57;;;;;;;11.53;88.00;102284.75;5015748;28;20109;-92
2022/01/01 00:42:01;;;;;;;15.97;6.30;;;;;;;11.58;88.42;102285.63;5015485;28;20033;-93
2022/01/01 00:44:30;;;;;;;13.60;6.03;;;;;;;11.55;88.51;102271.72;5015751;28;20556;-93
2022/01/01 00:46:56;;;;;;;14.27;5.93;;;;;;;11.58;88.06;102285.63;5015420;28;20041;-93
2022/01/01 00:49:41;;;;;;;12.17;5.73;;;;;;;11.59;88.26;102279.59;5015614;28;20040;-93
2022/01/01 00:52:07;;;;;;;14.13;6.43;;;;;;;11.58;88.53;102272.63;5015785;28;20068;-93
2022/01/01 00:54:32;;;;;;;12.40;5.97;;;;;;;11.59;88.36;102276.09;5015256;28;20050;-92
2022/01/01 00:57:13;;;;;;;14.27;5.10;;;;;;;11.58;88.26;102276.94;5015278;28;20038;-93
2022/01/01 00:59:38;;;;;;;11.80;4.88;;;;;;;11.56;87.81;102279.56;5014939;28;20106;-92
2022/01/01 01:02:03;;;;;;;14.13;5.40;;;;;;;11.57;88.29;102283.91;5015477;28;20113;-92
2022/01/01 01:04:29;;;;;;;12.77;5.60;;;;;;;11.56;87.95;102284.75;5015749;28;20022;-93
2022/01/01 01:07:12;;;;;;;13.60;5.83;;;;;;;11.52;88.29;102275.19;5015820;28;20025;-93
2022/01/01 01:09:37;;;;;;;12.40;5.53;;;;;;;11.54;88.21;102280.44;4995728;28;20033;-93
2022/01/01 01:12:03;;;;;;;12.97;5.10;;;;;;;11.55;88.25;102276.94;4995106;28;20026;-92
2022/01/01 01:14:28;;;;;;;9.60;4.70;;;;;;;11.52;87.97;102277.78;4995540;28;20114;-93
2022/01/01 01:19:45;;;;;;;9.20;4.53;;;;;;;11.53;88.11;102281.28;5015236;28;20126;-93
2022/01/01 01:22:11;;;;;;;8.53;4.50;;;;;;;11.51;88.31;102276.06;5022991;23;20159;-93
2022/01/01 01:24:53;;;;;;;9.27;4.53;;;;;;;11.49;87.90;102279.53;5012223;28;20514;-93
2022/01/01 01:27:18;;;;;;;7.47;4.20;;;;;;;11.50;87.73;102284.72;5014842;28;20042;-93
2022/01/01 01:29:45;;;;;;;6.93;3.70;;;;;;;11.51;87.69;102290.81;5014804;28;20045;-93
2022/01/01 01:32:27;;;;;;;;;;;;;;;11.51;87.90;102290.81;5015142;28;20018;-93
2022/01/01 01:34:53;;;;;;;8.75;3.40;;;;;;;11.50;88.03;102299.47;5014348;28;19921;-91
2022/01/01 01:37:18;;;;;;;6.77;3.53;;;;;;;11.47;88.34;102287.31;5014615;28;20030;-93
2022/01/01 01:39:43;;;;;;;6.63;3.50;;;;;;;11.49;87.76;102289.91;5014560;28;20034;-93
2022/01/01 01:42:24;;;;;;;9.83;4.07;;;;;;;11.48;87.99;102293.38;5014690;28;20112;-93
2022/01/01 01:44:53;;;;;;;6.57;3.25;;;;;;;11.46;88.10;102287.31;5014293;28;20049;-93
2022/01/01 01:47:27;;;;;;;5.35;3.10;;;;;;;11.48;87.86;102296.88;5014941;28;20437;-93
2022/01/01 01:50:04;;;;;;;7.57;3.30;;;;;;;11.47;88.03;102300.31;5012305;28;20038;-93
2022/01/01 01:52:33;;;;;;;4.57;2.90;;;;;;;11.47;88.22;102313.31;4995288;28;20018;-92
2022/01/01 01:55:17;;;;;;;5.05;3.30;;;;;;;11.48;88.01;102317.66;5005440;28;20033;-93
2022/01/01 01:57:42;;;;;;;8.15;3.50;;;;;;;11.47;88.15;102318.53;5015497;28;20041;-93
2022/01/01 02:00:57;;;;;;;6.10;3.27;;;;;;;11.48;88.24;102321.97;5014805;28;20026;-92
2022/01/01 02:03:33;;;;;;;4.75;3.10;;;;;;;11.48;88.36;102332.38;5013758;28;20034;-93
2022/01/01 02:06:00;;;;;;;5.70;3.20;;;;;;;11.46;88.53;102318.50;5016421;28;20029;-92
2022/01/01 02:08:26;;;;;;;7.95;3.20;;;;;;;11.46;88.27;102314.19;5014497;28;20026;-92
2022/01/01 02:10:52;;;;;;;8.15;3.72;;;;;;;11.42;87.98;102300.31;5014127;28;20113;-93
2022/01/01 02:17:09;;;;;;;8.88;4.00;;;;;;;11.47;88.41;102315.03;4944021;28;20431;-93
2022/01/01 02:19:54;;;;;;;6.97;3.50;;;;;;;11.45;88.51;102312.44;4995014;28;20475;-93
2022/01/01 02:22:19;;;;;;;11.13;4.07;;;;;;;11.43;88.85;102308.97;4994570;28;20035;-92
2022/01/01 02:24:45;;;;;;;6.77;3.83;;;;;;;11.44;88.33;102300.31;5000878;28;20489;-93
2022/01/01 02:27:11;;;;;;;11.47;4.27;;;;;;;11.40;88.58;102296.81;5013937;28;20026;-93
2022/01/01 02:29:37;;;;;;;;;;;;;;;11.43;88.80;102301.16;5014861;28;20048;-93
2022/01/01 02:32:19;;;;;;;8.93;4.10;;;;;;;11.40;88.84;102303.75;5008535;28;19917;-93
2022/01/01 02:34:44;;;;;;;16.33;5.55;;;;;;;11.40;88.53;102294.22;5013599;28;20029;-92
2022/01/01 02:37:28;;;;;;;9.70;4.53;;;;;;;11.41;88.83;102298.56;5013686;28;20037;-93
2022/01/01 02:39:53;;;;;;;8.18;4.18;;;;;;;11.37;88.72;102290.75;5014137;28;20065;-93
2022/01/01 02:42:20;;;;;;;7.27;3.50;;;;;;;11.42;88.64;102299.41;5014352;28;20052;-92
2022/01/01 02:45:09;;;;;;;6.85;4.00;;;;;;;11.41;88.73;102302.88;5013622;28;20079;-93
2022/01/01 02:47:35;;;;;;;7.03;3.67;;;;;;;11.39;88.77;102302.88;5013707;28;20540;-92
2022/01/01 02:50:13;;;;;;;9.30;4.63;;;;;;;11.39;88.70;102296.81;5013595;28;20024;-93
2022/01/01 02:52:38;;;;;;;10.40;4.80;;;;;;;11.45;88.77;102302.03;5013238;28;20045;-92
2022/01/01 02:55:06;;;;;;;7.03;4.10;;;;;;;11.42;88.50;102286.44;5013497;28;20370;-92
2022/01/01 02:57:49;;;;;;;7.43;4.03;;;;;;;11.43;88.45;102282.97;5013404;28;20018;-92
2022/01/01 03:00:15;;;;;;;8.48;3.75;;;;;;;11.42;88.22;102271.72;5014852;28;20026;-92
2022/01/01 03:02:53;;;;;;;7.53;3.80;;;;;;;11.44;88.51;102271.72;5017389;28;20484;-92
2022/01/01 03:05:18;;;;;;;7.35;3.63;;;;;;;11.45;88.66;102270.84;5019524;28;20079;-93
2022/01/01 03:07:43;;;;;;;7.53;4.23;;;;;;;11.45;88.56;102273.44;5017931;28;20018;-93
2022/01/01 03:10:26;;;;;;;13.40;5.60;;;;;;;11.46;88.21;102266.50;5017483;28;20032;-92
2022/01/01 03:12:52;;;;;;;10.13;4.82;;;;;;;11.45;88.51;102276.03;5016927;28;20428;-93
2022/01/01 03:15:36;;;;;;;10.13;5.00;;;;;;;11.48;88.39;102286.47;5017142;28;20113;-92
2022/01/01 03:18:02;;;;;;;9.75;4.93;;;;;;;11.42;88.42;102271.72;5017099;28;20052;-94
2022/01/01 03:20:27;;;;;;;8.63;4.47;;;;;;;11.43;88.72;102282.97;5016972;28;20022;-93
2022/01/01 03:22:52;;;;;;;8.23;4.10;;;;;;;11.45;88.66;102286.44;5016939;28;20045;-93
2022/01/01 03:25:35;;;;;;;6.97;3.90;;;;;;;11.43;88.46;102276.03;5017201;28;20053;-93
2022/01/01 03:28:00;;;;;;;10.75;4.97;;;;;;;11.42;88.26;102269.13;5016433;28;20018;-92
2022/01/01 03:30:46;;;;;;;11.07;5.10;;;;;;;11.46;88.48;102272.59;5017062;28;20101;-93
2022/01/01 03:33:11;;;;;;;8.88;4.30;;;;;;;11.47;88.61;102273.44;5016933;28;20037;-93
2022/01/01 03:35:37;;;;;;;10.90;4.67;;;;;;;11.46;88.61;102275.19;5016705;28;20117;-93
2022/01/01 03:38:17;;;;;;;6.40;4.00;;;;;;;11.43;88.43;102260.41;5016360;28;20083;-93
2022/01/01 03:40:43;;;;;;;8.15;4.00;;;;;;;11.44;88.51;102266.50;5016567;28;20079;-92
2022/01/01 03:43:08;;;;;;;7.47;4.17;;;;;;;11.46;88.22;102270.00;5016975;28;20466;-92
2022/01/01 03:45:51;;;;;;;6.00;3.37;;;;;;;11.45;88.08;102273.44;5016620;28;20022;-92
2022/01/01 03:48:17;;;;;;;6.50;3.20;;;;;;;11.43;88.15;102276.03;5016666;28;20033;-92
2022/01/01 03:50:42;;;;;;;5.30;3.40;;;;;;;11.43;88.11;102269.97;5018418;28;20025;-92
2022/01/01 03:53:26;;;;;;;3.87;2.77;;;;;;;11.41;88.20;102272.56;5016678;28;20037;-92
2022/01/01 03:55:52;;;;;;;6.88;3.50;;;;;;;11.39;87.83;102265.59;5016169;28;20032;-92
2022/01/01 03:58:17;;;;;;;4.45;2.90;;;;;;;11.37;87.94;102262.16;5016710;28;20044;-92
2022/01/01 04:01:01;;;;;;;3.53;2.70;;;;;;;11.37;88.20;102251.75;5016476;28;20105;-92
2022/01/01 04:03:26;;;;;;;5.45;3.20;;;;;;;11.38;88.29;102258.66;5016403;28;20029;-93
2022/01/01 04:05:52;;;;;;;6.77;3.47;;;;;;;11.37;88.20;102256.97;5018105;28;20022;-92
2022/01/01 04:08:35;;;;;;;5.60;3.50;;;;;;;11.33;88.27;102256.06;5015980;28;20037;-92
2022/01/01 04:11:00;;;;;;;7.50;3.47;;;;;;;11.37;88.12;102270.81;5015975;28;20033;-92
2022/01/01 04:13:26;;;;;;;7.10;4.00;;;;;;;11.39;88.44;102276.00;5015678;28;20030;-93
2022/01/01 04:16:07;;;;;;;7.13;3.73;;;;;;;11.39;88.33;102265.59;5016025;28;20042;-92
2022/01/01 04:18:41;;;;;;;6.35;3.55;;;;;;;11.39;88.14;102266.50;5016095;28;20021;-93
2022/01/01 04:21:23;;;;;;;6.65;3.25;;;;;;;11.38;87.83;102263.88;5016014;28;20022;-92
2022/01/01 04:23:49;;;;;;;6.07;3.50;;;;;;;11.37;88.14;102252.63;5015543;28;20049;-92
2022/01/01 04:26:14;;;;;;;9.33;4.17;;;;;;;11.42;87.77;102253.50;5016365;28;20033;-92
2022/01/01 04:28:52;;;;;;;7.50;3.93;;;;;;;11.39;87.88;102248.28;5018304;28;20022;-92
2022/01/01 04:31:17;;;;;;;7.30;4.05;;;;;;;11.38;87.76;102246.56;5016399;28;20092;-92
2022/01/01 04:33:43;;;;;;;13.27;4.53;;;;;;;11.44;87.52;102259.56;5015621;28;20458;-92
2022/01/01 04:36:26;;;;;;;8.93;4.07;;;;;;;11.44;87.90;102266.50;5015926;28;20446;-92
2022/01/01 04:38:51;;;;;;;7.00;3.50;;;;;;;11.40;87.75;102263.03;5015618;28;20022;-92
2022/01/01 04:41:16;;;;;;;6.47;3.57;;;;;;;11.43;87.69;102270.81;5015793;28;20075;-92
2022/01/01 04:43:43;;;;;;;6.43;3.53;;;;;;;11.38;87.69;102267.34;5015232;28;20038;-92
2022/01/01 04:46:25;;;;;;;4.93;3.00;;;;;;;11.43;87.52;102269.97;4997447;28;20042;-92
2022/01/01 04:48:50;;;;;;;5.05;3.00;;;;;;;11.44;87.58;102274.31;5015448;28;20356;-93
2022/01/01 04:51:16;;;;;;;7.70;3.27;;;;;;;11.42;87.51;102268.22;5014945;28;20087;-93
2022/01/01 04:54:02;;;;;;;6.27;3.40;;;;;;;11.42;87.63;102268.22;5015271;28;20044;-93
2022/01/01 04:56:47;;;;;;;;;;;;;;;11.48;87.27;102281.28;5015206;28;20555;-93
2022/01/01 04:59:13;;;;;;;9.57;3.88;;;;;;;11.42;87.33;102268.22;5015452;28;19959;-93
2022/01/01 05:01:42;;;;;;;6.90;3.60;;;;;;;11.48;87.35;102273.47;5015144;28;20085;-92
2022/01/01 05:04:24;;;;;;;6.13;3.30;;;;;;;11.49;86.98;102271.72;5015139;28;20022;-90
2022/01/01 05:06:51;;;;;;;5.75;3.30;;;;;;;11.45;87.10;102273.44;5017256;28;20032;-93
2022/01/01 05:09:17;;;;;;;8.43;3.55;;;;;;;11.47;87.18;102282.13;5015417;28;20029;-93
2022/01/01 05:12:07;;;;;;;6.53;3.40;;;;;;;11.50;87.04;102282.13;5014954;28;20351;-93
2022/01/01 05:14:44;;;;;;;5.97;3.30;;;;;;;11.44;86.95;102276.91;5015048;28;20029;-93
2022/01/01 05:17:10;;;;;;;10.52;4.03;;;;;;;11.48;86.74;102283.88;5015227;28;20018;-93
2022/01/01 05:19:35;;;;;;;12.53;4.60;;;;;;;11.48;87.28;102280.38;5015099;28;20084;-92
2022/01/01 05:22:22;;;;;;;9.53;3.90;;;;;;;11.47;86.96;102289.94;5014640;28;20029;-92
2022/01/01 05:24:48;;;;;;;8.70;4.30;;;;;;;11.48;86.98;102293.38;4995006;28;20099;-92
2022/01/01 05:27:34;;;;;;;8.33;3.73;;;;;;;11.47;87.02;102296.84;4994883;28;20462;-92
2022/01/01 05:30:00;;;;;;;10.88;4.28;;;;;;;11.46;86.70;102284.69;4994986;28;20026;-92
2022/01/01 05:32:44;;;;;;;7.70;3.95;;;;;;;11.47;86.89;102292.53;4994799;28;20018;-93
2022/01/01 05:35:10;;;;;;;8.55;3.75;;;;;;;11.42;86.89;102283.81;4995017;28;20109;-92
2022/01/01 05:37:35;;;;;;;8.83;3.60;;;;;;;11.43;86.55;102282.97;4995230;28;20060;-93
2022/01/01 05:40:20;;;;;;;6.90;3.40;;;;;;;11.46;87.00;102295.09;4994140;28;20037;-93
2022/01/01 05:42:45;;;;;;;5.70;3.30;;;;;;;11.43;87.01;102289.03;4994764;28;20101;-92
2022/01/01 05:45:20;;;;;;;6.23;3.50;;;;;;;11.42;86.95;102291.63;4995314;28;20057;-92
2022/01/01 05:47:45;;;;;;;8.50;3.70;;;;;;;11.38;86.89;102284.66;4994819;28;20030;-92
2022/01/01 05:50:11;;;;;;;7.27;3.13;;;;;;;11.42;86.56;102291.63;4995005;28;20370;-92
2022/01/01 05:52:51;;;;;;;7.00;3.63;;;;;;;11.40;86.64;102289.03;4995034;28;20018;-92
2022/01/01 05:55:17;;;;;;;6.43;3.53;;;;;;;11.41;86.73;102282.97;4994932;28;20033;-92
2022/01/01 05:57:42;;;;;;;9.00;4.40;;;;;;;11.41;86.65;102275.19;4994713;28;20463;-92
2022/01/01 06:00:25;;;;;;;10.63;4.53;;;;;;;11.42;86.62;102278.63;4994864;28;20436;-92
2022/01/01 06:02:50;;;;;;;9.48;4.15;;;;;;;11.42;86.57;102278.63;4996233;28;20022;-92
2022/01/01 06:05:17;;;;;;;7.03;3.63;;;;;;;11.38;86.69;102279.47;4995934;28;20027;-92
2022/01/01 06:08:09;;;;;;;7.47;3.30;;;;;;;11.40;86.75;102282.94;4996936;28;20113;-92
2022/01/01 06:10:55;;;;;;;7.38;3.65;;;;;;;11.36;86.45;102276.00;4994802;28;20053;-93
2022/01/01 06:13:20;;;;;;;8.95;3.72;;;;;;;11.39;86.52;102265.59;4994162;28;20030;-92
2022/01/01 06:15:45;;;;;;;6.23;3.37;;;;;;;11.36;86.59;102263.03;4994414;28;20195;-93
2022/01/01 06:18:31;;;;;;;8.30;3.73;;;;;;;11.34;86.50;102269.94;4994631;28;20077;-92
2022/01/01 06:20:57;;;;;;;8.57;3.90;;;;;;;11.26;86.31;102254.31;4994406;28;20050;-93
2022/01/01 06:23:47;;;;;;;7.20;3.30;;;;;;;11.30;86.13;102268.16;5001653;28;20126;-94
2022/01/01 06:26:21;;;;;;;6.38;3.22;;;;;;;11.23;86.26;102256.88;5014151;28;20044;-93
2022/01/01 06:28:46;;;;;;;8.23;3.20;;;;;;;11.19;85.99;102266.41;5014058;28;20018;-94
2022/01/01 06:31:29;;;;;;;5.83;2.97;;;;;;;11.16;86.20;102268.97;5014305;28;20033;-93
2022/01/01 06:33:54;;;;;;;7.68;3.15;;;;;;;11.06;86.29;102256.78;5013667;28;20474;-93
2022/01/01 06:36:35;;;;;;;5.07;2.90;;;;;;;11.05;86.08;102276.72;5017005;28;20029;-94
2022/01/01 06:39:00;;;;;;;6.55;3.25;;;;;;;11.01;86.40;102274.97;5017960;28;20022;-93
2022/01/01 06:41:25;;;;;;;7.20;3.10;;;;;;;11.01;86.49;102280.16;5017529;28;20088;-93
2022/01/01 06:44:03;;;;;;;7.73;3.43;;;;;;;10.99;86.19;102271.47;5017945;28;20037;-93
2022/01/01 06:46:28;;;;;;;8.00;3.35;;;;;;;10.94;86.47;102268.84;5017538;28;20026;-93
2022/01/01 06:49:12;;;;;;;8.80;3.20;;;;;;;10.97;86.23;102281.88;5017687;28;20033;-92
2022/01/01 06:51:37;;;;;;;6.55;3.30;;;;;;;10.96;86.08;102276.66;5017685;28;20041;-93
2022/01/01 06:54:18;;;;;;;8.37;3.33;;;;;;;10.90;86.14;102272.31;5017537;28;20414;-93
2022/01/01 06:56:43;;;;;;;5.18;3.00;;;;;;;10.91;86.21;102279.25;5017469;28;20374;-93
2022/01/01 06:59:24;;;;;;;7.10;3.30;;;;;;;10.89;86.33;102274.88;5017722;28;20026;-93
2022/01/01 07:01:49;;;;;;;4.63;2.60;;;;;;;10.85;86.09;102279.19;5019131;28;20108;-93
2022/01/01 07:04:15;;;;;;;5.17;2.70;;;;;;;10.86;86.13;102287.88;5025886;23;20076;-92
2022/01/01 07:06:52;;;;;;;6.70;3.20;;;;;;;10.88;86.44;102293.91;5016595;28;20121;-90
2022/01/01 07:09:17;;;;;;;7.15;3.03;;;;;;;10.85;86.58;102294.78;5017782;28;20121;-89
2022/01/01 07:11:43;;;;;;;5.63;2.70;;;;;;;10.88;86.42;102300.00;5016301;28;20105;-89
2022/01/01 07:14:26;;;;;;;6.63;3.30;;;;;;;10.89;86.83;102300.84;5017335;28;20355;-90
2022/01/01 07:16:51;;;;;;;6.47;3.00;;;;;;;10.90;86.50;102303.47;5015873;28;20445;-81
2022/01/01 07:19:16;;;;;;;7.23;3.17;;;;;;;10.93;86.21;102315.59;5015304;28;20021;-81
2022/01/01 07:21:42;;;;;;;5.83;3.07;;;;;;;10.93;86.17;102310.41;5015994;28;20018;-81
2022/01/01 07:24:07;;;;;;;6.40;3.10;;;;;;;10.94;86.44;102307.81;5015894;28;20501;-81
2022/01/01 07:26:32;;;;;;;5.10;2.70;;;;;;;10.96;86.17;102300.91;5015127;28;20029;-81
2022/01/01 07:28:57;;;;;;;5.13;2.73;;;;;;;11.07;86.05;102306.19;5015661;28;20398;-85
2022/01/01 07:31:24;;;;;;;7.97;3.47;;;;;;;11.00;86.01;102308.72;5015934;28;20381;-86
2022/01/01 07:33:49;;;;;;;5.30;2.95;;;;;;;10.97;86.13;102317.38;5014812;28;20014;-89
2022/01/01 07:36:18;;;;;;;7.10;2.87;;;;;;;10.99;85.96;102332.97;5016237;28;20037;-95
2022/01/01 07:38:56;;;;;;;3.90;2.50;;;;;;;10.94;86.01;102314.75;4999963;28;20068;-93
2022/01/01 07:41:21;;;;;;;4.00;2.40;;;;;;;10.95;86.26;102314.75;5018818;28;20031;-82
2022/01/01 07:44:02;;;;;;;5.37;2.70;;;;;;;10.95;85.80;102319.94;5017179;28;20026;-94
2022/01/01 07:46:27;;;;;;;5.15;2.70;;;;;;;10.99;85.91;102323.44;5014594;28;20501;-95
2022/01/01 07:49:04;;;;;;;6.13;2.80;;;;;;;10.96;86.04;102321.69;4996106;28;20031;-95
2022/01/01 07:51:32;;;;;;;6.43;2.80;;;;;;;10.99;85.93;102335.56;4996561;28;20387;-95
2022/01/01 07:54:08;;;;;;;4.82;2.40;;;;;;;10.99;85.87;102327.78;4995201;28;20058;-90
2022/01/01 07:56:49;;;;;;;4.22;2.75;;;;;;;10.99;85.88;102322.56;4996685;28;20042;-93
2022/01/01 07:59:21;;;;;;;4.35;2.40;;;;;;;11.01;85.60;102336.44;4996613;28;20038;-90
2022/01/01 08:01:46;;;;;;;2.65;2.20;;;;;;;11.01;85.82;102334.72;4996784;28;20034;-93
2022/01/01 08:04:12;;;;;;;5.87;2.50;;;;;;;11.01;85.86;102339.03;4996563;28;20043;-91
2022/01/01 08:06:51;;;;;;;3.93;2.40;;;;;;;10.99;85.53;102328.63;4996216;28;20368;-89
2022/01/01 08:09:29;;;;;;;4.75;2.50;;;;;;;11.02;85.81;102340.78;4996489;28;20037;-91
2022/01/01 08:11:59;;;;;;;5.28;2.75;;;;;;;11.00;85.60;102340.75;4996544;28;20057;-93
2022/01/01 08:14:27;;;;;;;2.95;2.33;;;;;;;11.03;85.72;102342.53;4998168;28;20034;-92
2022/01/01 08:17:10;;;;;;;3.88;2.50;;;;;;;11.00;85.57;102332.09;4997007;28;20427;-91
2022/01/01 08:19:46;;;;;;;6.63;2.88;;;;;;;11.01;85.62;102337.31;4996629;28;20026;-92
2022/01/01 08:22:21;;;;;;;7.13;3.05;;;;;;;11.01;85.34;102339.03;4996499;28;20478;-92
2022/01/01 08:24:55;;;;;;;7.25;2.83;;;;;;;11.04;85.53;102336.44;4996482;28;20427;-92
2022/01/01 08:27:24;;;;;;;5.13;2.50;;;;;;;11.04;85.31;102329.53;4996188;28;20026;-92
2022/01/01 08:30:02;;;;;;;4.50;2.38;;;;;;;11.06;85.91;102335.63;5006000;28;20029;-92
2022/01/01 08:32:33;;;;;;;4.18;2.40;;;;;;;11.05;85.47;102333.88;5015690;28;20057;-91
2022/01/01 08:35:01;;;;;;;5.22;2.58;;;;;;;11.08;85.48;102341.69;5015543;28;20099;-91
2022/01/01 08:37:40;;;;;;;3.45;2.65;;;;;;;11.07;85.49;102337.38;5015618;28;20026;-92
2022/01/01 08:40:14;;;;;;;4.22;2.40;;;;;;;11.07;85.48;102332.16;5015973;28;20119;-92
2022/01/01 08:42:58;;;;;;;3.35;2.60;;;;;;;11.10;85.38;102326.13;5015571;28;20030;-92
2022/01/01 08:45:26;;;;;;;4.40;2.70;;;;;;;11.13;85.52;102337.38;5015781;28;20037;-91
2022/01/01 08:47:57;;;;;;;2.75;2.30;;;;;;;11.12;85.44;102337.38;5015634;28;20033;-91
2022/01/01 08:50:29;;;;;;;4.70;2.80;;;;;;;11.08;85.24;102333.03;5015302;28;20112;-91
2022/01/01 08:53:05;;;;;;;4.55;2.88;;;;;;;11.13;85.48;102341.72;5015087;28;20030;-92
2022/01/01 08:55:33;;;;;;;4.35;2.70;;;;;;;11.11;85.10;102349.50;5015261;28;20037;-91
2022/01/01 08:58:04;;;;;;;5.30;2.60;;;;;;;11.07;85.47;102329.56;5014541;28;20025;-91
2022/01/01 09:00:29;;;;;;;4.32;2.50;;;;;;;11.07;85.40;102337.38;5014655;28;20060;-87
2022/01/01 09:02:55;;;;;;;3.60;2.60;;;;;;;11.08;85.30;102330.41;5013830;28;20069;-80
2022/01/01 09:05:21;;;;;;;3.53;2.67;;;;;;;11.11;85.41;102341.69;5014436;28;20374;-95
2022/01/01 09:07:48;;;;;;;3.95;2.50;;;;;;;11.10;85.81;102339.97;5021753;28;20022;-95
2022/01/01 09:10:21;;;;;;;5.78;2.85;;;;;;;11.12;85.39;102337.38;5016243;28;20029;-95
2022/01/01 09:12:46;;;;;;;6.75;3.28;;;;;;;11.15;84.88;102336.53;5030144;23;20042;-95
2022/01/01 09:15:19;;;;;;;7.17;3.20;;;;;;;11.08;85.32;102325.22;5012606;28;20474;-95
2022/01/01 09:18:00;;;;;;;5.88;3.00;;;;;;;11.09;85.02;102325.22;5015300;28;20037;-96
2022/01/01 09:20:33;;;;;;;7.63;3.30;;;;;;;11.09;85.04;102316.56;5030700;28;20099;-96
2022/01/01 09:23:08;;;;;;;5.82;3.50;;;;;;;11.16;85.12;102325.28;5016216;28;20108;-95
2022/01/01 09:25:45;;;;;;;5.53;3.20;;;;;;;11.11;84.93;102320.06;5016151;28;20117;-95
2022/01/01 09:28:17;;;;;;;6.63;3.10;;;;;;;11.12;85.10;102314.84;5015739;28;20045;-95
2022/01/01 09:30:49;;;;;;;5.80;3.10;;;;;;;11.13;85.08;102315.75;5015196;28;20056;-95
2022/01/01 09:33:27;;;;;;;7.35;3.67;;;;;;;11.14;84.92;102317.50;5015549;28;20042;-95
2022/01/01 09:36:00;;;;;;;6.18;3.35;;;;;;;11.13;84.96;102315.75;5024414;28;20029;-94
2022/01/01 09:38:27;;;;;;;8.82;3.95;;;;;;;11.13;84.78;102313.16;5018613;28;20449;-95
2022/01/01 09:41:00;;;;;;;6.80;3.60;;;;;;;11.18;84.59;102318.38;5014415;28;20105;-96
2022/01/01 09:43:35;;;;;;;5.55;3.20;;;;;;;11.18;84.83;102323.56;5014787;28;20037;-96
2022/01/01 09:46:11;;;;;;;6.18;3.28;;;;;;;11.20;84.89;102320.09;5015026;28;20328;-95
2022/01/01 09:48:39;;;;;;;5.07;3.05;;;;;;;11.14;85.06;102301.91;5014566;28;20100;-95
2022/01/01 09:51:09;;;;;;;4.15;2.90;;;;;;;11.17;84.89;102311.44;5009839;28;20490;-96
2022/01/01 09:53:42;;;;;;;5.57;2.92;;;;;;;11.20;85.07;102307.13;5013608;28;20057;-94
2022/01/01 09:56:11;;;;;;;5.00;2.95;;;;;;;11.20;84.81;102312.31;5014793;28;20038;-96
2022/01/01 09:58:43;;;;;;;5.85;2.97;;;;;;;11.16;84.96;102297.56;5014426;28;20022;-95
2022/01/01 10:01:15;;;;;;;3.58;2.63;;;;;;;11.23;85.02;102311.44;5014324;28;20026;-96
2022/01/01 10:03:47;;;;;;;6.30;3.45;;;;;;;11.20;84.49;102301.06;5014559;28;20017;-95
2022/01/01 10:06:34;;;;;;;8.05;3.70;;;;;;;11.22;84.89;102307.09;5014491;28;20383;-94
2022/01/01 10:09:07;;;;;;;7.05;3.40;;;;;;;11.24;84.68;102302.78;5017305;28;20482;-95
2022/01/01 10:11:37;;;;;;;5.75;3.47;;;;;;;11.21;85.00;102293.25;4993383;28;20487;-95
2022/01/01 10:14:14;;;;;;;8.57;4.22;;;;;;;11.24;84.60;102284.59;4993813;28;20046;-95
2022/01/01 10:16:51;;;;;;;8.80;3.83;;;;;;;11.38;84.40;102290.75;4994448;28;20026;-95
2022/01/01 10:19:28;;;;;;;;;;;;;;;11.33;84.67;102284.66;5012531;28;20026;-95
2022/01/01 10:22:01;;;;;;;7.97;3.75;;;;;;;11.30;84.45;102260.38;5014078;28;20059;-95
2022/01/01 10:28:15;;;;;;;7.57;4.03;;;;;;;11.39;84.44;102279.50;5014243;28;20548;-94
2022/01/01 10:30:44;;;;;;;8.20;3.92;;;;;;;11.43;83.95;102272.56;5017692;28;20026;-95
2022/01/01 10:33:11;;;;;;;6.15;3.75;;;;;;;11.37;84.33;102268.22;5013989;28;20040;-91
2022/01/01 10:35:38;;;;;;;;;;;;;;;11.36;84.49;102265.63;5018356;28;20041;-92
2022/01/01 10:40:31;;;;;;;8.40;3.70;;;;;;;11.39;84.15;102253.50;5020390;23;20056;-91
2022/01/01 10:42:57;;;;;;;10.67;4.17;;;;;;;11.43;84.35;102254.38;5012706;28;20030;-90
2022/01/01 10:45:40;;;;;;;5.63;3.50;;;;;;;11.50;84.47;102257.88;5013467;28;20030;-91
2022/01/01 10:48:39;;;;;;;6.65;3.53;;;;;;;11.56;84.38;102252.66;5013911;28;20029;-91
2022/01/01 10:51:13;;;;;;;8.50;3.97;;;;;;;11.61;83.85;102247.47;5013559;28;20026;-91
2022/01/01 10:53:39;;;;;;;6.90;3.55;;;;;;;11.65;83.71;102231.88;5013743;28;20030;-92
2022/01/01 10:56:34;;;;;;;7.25;3.88;;;;;;;11.73;84.07;102229.31;5013785;28;20080;-91
2022/01/01 10:59:00;;;;;;;8.23;3.53;;;;;;;11.80;83.71;102232.78;5013574;28;20034;-91
2022/01/01 11:01:49;;;;;;;8.93;4.37;;;;;;;11.84;83.52;102237.16;5013324;28;20026;-91
2022/01/01 11:04:14;;;;;;;8.27;3.85;;;;;;;11.80;83.28;102214.59;5013643;28;20026;-91
2022/01/01 11:07:02;;;;;;;7.37;3.83;;;;;;;11.85;83.21;102229.34;5013661;28;20030;-91
2022/01/01 11:09:42;;;;;;;6.07;3.60;;;;;;;11.80;83.51;102225.88;5014354;28;20449;-91
2022/01/01 11:12:08;;;;;;;6.82;3.20;;;;;;;11.83;83.53;102223.25;5012895;28;20120;-95
2022/01/01 11:14:35;;;;;;;5.75;3.28;;;;;;;11.86;83.74;102235.44;5013193;28;20033;-93
2022/01/01 11:17:01;;;;;;;6.43;3.53;;;;;;;11.88;83.22;102229.34;5013363;28;20022;-84
2022/01/01 11:19:36;;;;;;;8.27;3.37;;;;;;;11.81;83.21;102221.53;5012305;28;20072;-95
2022/01/01 11:22:01;;;;;;;5.72;2.97;;;;;;;11.89;83.42;102218.09;5014554;28;20030;-95
2022/01/01 11:28:42;;;;;;;7.38;4.03;;;;;;;12.19;82.77;102216.38;5016485;28;20156;-95
2022/01/01 11:31:40;;;;;;;9.68;3.67;;;;;;;12.18;83.19;102211.19;5015683;28;20049;-95
2022/01/01 11:34:20;;;;;;;8.75;3.85;;;;;;;12.23;82.98;102205.97;5017124;28;20037;-94
2022/01/01 11:37:04;;;;;;;6.18;3.50;;;;;;;12.33;82.35;102190.34;5016858;28;20081;-95
2022/01/01 11:39:32;;;;;;;8.65;3.60;;;;;;;12.42;82.19;102191.22;5016686;28;20084;-95
2022/01/01 11:42:20;;;;;;;6.90;3.30;;;;;;;12.54;82.04;102200.75;5016251;28;20021;-94
2022/01/01 11:45:20;;;;;;;;;;;;;;;;;;;;;
2022/01/01 11:54:35;;;;;;;6.32;3.15;;;;;;;12.49;81.97;102211.16;4996663;28;20466;-92
2022/01/01 11:57:38;;;;;;;5.03;2.80;;;;;;;12.50;81.92;102207.69;4996826;28;20035;-91
2022/01/01 12:00:22;;;;;;;6.40;3.50;;;;;;;12.43;81.75;102199.03;4997270;28;20475;-91
2022/01/01 12:03:12;;;;;;;6.65;3.17;;;;;;;12.40;81.60;102196.41;5020150;28;20470;-91
2022/01/01 12:05:41;;;;;;;5.50;2.90;;;;;;;12.38;82.03;102192.09;4997431;28;20517;-91
2022/01/01 12:08:06;;;;;;;5.22;3.00;;;;;;;12.32;81.79;102190.34;5010534;28;20486;-83
2022/01/01 12:10:51;;;;;;;3.25;2.70;;;;;;;12.33;82.04;102190.34;5018298;28;20109;-93
2022/01/01 12:13:45;;;;;;;4.13;2.75;;;;;;;12.33;82.34;102198.16;5006959;28;20030;-93
2022/01/01 12:16:26;;;;;;;2.90;2.38;;;;;;;12.33;81.78;102192.09;5010098;28;20033;-93